createdAt,value
2023-11-24T00:01:39.063Z,101478.50
2023-11-24T00:04:06.238Z,101474.34
2023-11-24T00:06:34.405Z,101470.59
2023-11-24T00:09:01.249Z,101469.88
2023-11-24T00:11:27.882Z,101457.97
2023-11-24T00:13:54.602Z,101446.66
2023-11-24T00:16:21.358Z,101461.72
2023-11-24T00:18:48.388Z,101454.41
2023-11-24T00:21:15.159Z,101446.28
2023-11-24T00:23:43.213Z,101446.72
2023-11-24T00:26:10.278Z,101439.34
2023-11-24T00:28:47.731Z,101456.09
2023-11-24T00:31:14.448Z,101441.59
2023-11-24T00:33:41.377Z,101447.22
2023-11-24T00:36:08.695Z,101449.25
2023-11-24T00:38:35.377Z,101445.03
2023-11-24T00:41:03.512Z,101437.09
2023-11-24T00:43:30.190Z,101433.53
2023-11-24T00:45:56.896Z,101438.25
2023-11-24T00:48:23.692Z,101440.81
2023-11-24T00:50:50.389Z,101431.09
2023-11-24T00:53:17.146Z,101439.50
2023-11-24T00:55:43.851Z,101445.16
2023-11-24T00:58:11.946Z,101432.38
2023-11-24T01:00:38.648Z,101439.88
2023-11-24T01:03:05.489Z,101437.03
2023-11-24T01:05:32.462Z,101431.16
2023-11-24T01:07:59.149Z,101421.28
2023-11-24T01:10:25.887Z,101421.59
2023-11-24T01:12:52.710Z,101438.91
2023-11-24T01:15:21.139Z,101402.91
2023-11-24T01:17:47.945Z,101461.53
2023-11-24T01:20:14.859Z,101474.94
2023-11-24T01:22:42.274Z,101469.50
2023-11-24T01:25:10.426Z,101460.72
2023-11-24T01:27:37.171Z,101474.94
2023-11-24T01:30:04.607Z,101451.06
2023-11-24T01:32:32.735Z,101453.06
2023-11-24T01:34:59.560Z,101438.34
2023-11-24T01:37:26.307Z,101444.47
2023-11-24T01:39:53.086Z,101432.31
2023-11-24T01:42:19.944Z,101438.06
2023-11-24T01:44:46.742Z,101469.38
2023-11-24T01:47:13.479Z,101450.78
2023-11-24T01:49:41.799Z,101444.47
2023-11-24T01:52:08.624Z,101432.97
2023-11-24T01:54:37.831Z,101430.41
2023-11-24T01:57:07.608Z,101433.50
2023-11-24T01:59:35.528Z,101426.03
2023-11-24T02:02:02.961Z,101425.13
2023-11-24T02:04:29.812Z,101421.47
2023-11-24T02:06:58.338Z,101425.06
2023-11-24T02:09:25.393Z,101403.59
2023-11-24T02:11:52.119Z,101409.91
2023-11-24T02:14:18.849Z,101408.50
2023-11-24T02:16:45.594Z,101409.22
2023-11-24T02:19:12.349Z,101412.22
2023-11-24T02:21:39.210Z,101418.44
2023-11-24T02:24:07.991Z,101401.00
2023-11-24T02:26:34.760Z,101395.66
2023-11-24T02:29:01.542Z,101400.44
2023-11-24T02:31:28.403Z,101395.59
2023-11-24T02:33:55.207Z,101396.47
2023-11-24T02:36:22.420Z,101395.75
2023-11-24T02:38:49.319Z,101393.09
2023-11-24T02:41:17.837Z,101399.09
2023-11-24T02:43:44.708Z,101408.75
2023-11-24T02:46:11.651Z,101402.63
2023-11-24T02:48:38.504Z,101411.81
2023-11-24T02:51:05.650Z,101390.38
2023-11-24T02:53:32.443Z,101371.44
2023-11-24T02:55:59.487Z,101362.59
2023-11-24T02:58:28.371Z,101368.75
2023-11-24T03:00:55.120Z,101356.81
2023-11-24T03:03:21.909Z,101362.25
2023-11-24T03:05:48.677Z,101366.38
2023-11-24T03:08:15.400Z,101358.00
2023-11-24T03:10:42.372Z,101359.59
2023-11-24T03:13:09.343Z,101360.44
2023-11-24T03:15:37.425Z,101356.69
2023-11-24T03:18:04.628Z,101349.13
2023-11-24T03:20:31.363Z,101341.13
2023-11-24T03:22:58.069Z,101345.81
2023-11-24T03:25:26.722Z,101356.31
2023-11-24T03:27:53.461Z,101337.94
2023-11-24T03:30:20.299Z,101348.22
2023-11-24T03:32:48.371Z,101347.28
2023-11-24T03:35:15.181Z,101337.78
2023-11-24T03:37:41.904Z,101333.44
2023-11-24T03:40:09.541Z,101324.00
2023-11-24T03:42:36.318Z,101327.03
2023-11-24T03:45:03.494Z,101342.59
2023-11-24T03:47:30.408Z,101338.72
2023-11-24T03:49:58.555Z,101346.97
2023-11-24T03:52:25.258Z,101319.81
2023-11-24T03:54:52.270Z,101336.88
2023-11-24T03:57:19.249Z,101335.47
2023-11-24T03:59:46.241Z,101355.44
2023-11-24T04:02:13.045Z,101320.56
2023-11-24T04:04:39.771Z,101327.59
2023-11-24T04:07:07.963Z,101309.38
2023-11-24T04:09:34.804Z,101321.25
2023-11-24T04:12:01.530Z,101318.84
2023-11-24T04:14:28.917Z,101328.44
2023-11-24T04:16:56.604Z,101296.28
2023-11-24T04:19:24.161Z,101307.63
2023-11-24T04:21:50.909Z,101314.81
2023-11-24T04:24:19.070Z,101290.66
2023-11-24T04:26:45.794Z,101296.34
2023-11-24T04:29:12.516Z,101306.03
2023-11-24T04:31:39.313Z,101295.38
2023-11-24T04:34:06.183Z,101284.41
2023-11-24T04:36:33.060Z,101285.63
2023-11-24T04:38:59.795Z,101282.06
2023-11-24T04:41:27.804Z,101279.72
2023-11-24T04:43:54.559Z,101280.38
2023-11-24T04:46:21.398Z,101276.56
2023-11-24T04:48:48.131Z,101274.59
2023-11-24T04:51:15.009Z,101279.88
2023-11-24T04:53:41.943Z,101297.88
2023-11-24T04:56:08.821Z,101286.41
2023-11-24T04:58:36.887Z,101279.13
2023-11-24T05:01:03.770Z,101311.38
2023-11-24T05:03:30.597Z,101306.41
2023-11-24T05:05:57.317Z,101296.81
2023-11-24T05:08:23.957Z,101297.78
2023-11-24T05:10:50.633Z,101291.84
2023-11-24T05:13:17.322Z,101281.09
2023-11-24T05:15:45.400Z,101286.44
2023-11-24T05:18:12.201Z,101290.53
2023-11-24T05:20:38.860Z,101289.34
2023-11-24T05:23:05.642Z,101292.56
2023-11-24T05:25:32.287Z,101282.81
2023-11-24T05:27:59.124Z,101265.28
2023-11-24T05:30:25.829Z,101266.97
2023-11-24T05:32:53.951Z,101262.69
2023-11-24T05:35:20.687Z,101257.69
2023-11-24T05:37:47.460Z,101260.28
2023-11-24T05:40:14.463Z,101234.47
2023-11-24T05:42:41.271Z,101258.63
2023-11-24T05:45:08.893Z,101252.56
2023-11-24T05:47:35.616Z,101242.81
2023-11-24T05:50:05.717Z,101248.72
2023-11-24T05:52:32.481Z,101246.41
2023-11-24T05:54:59.382Z,101237.75
2023-11-24T05:57:26.312Z,101272.63
2023-11-24T05:59:53.007Z,101249.66
2023-11-24T06:02:19.670Z,101253.13
2023-11-24T06:04:46.469Z,101259.16
2023-11-24T06:07:14.857Z,101257.78
2023-11-24T06:09:41.590Z,101256.34
2023-11-24T06:12:08.570Z,101243.06
2023-11-24T06:14:35.265Z,101242.13
2023-11-24T06:17:02.171Z,101241.84
2023-11-24T06:19:28.893Z,101240.47
2023-11-24T06:21:55.652Z,101243.75
2023-11-24T06:24:23.714Z,101233.06
2023-11-24T06:26:50.406Z,101229.84
2023-11-24T06:29:17.068Z,101228.75
2023-11-24T06:31:43.815Z,101213.66
2023-11-24T06:34:10.633Z,101226.94
2023-11-24T06:36:37.493Z,101223.13
2023-11-24T06:39:04.918Z,101222.06
2023-11-24T06:41:32.949Z,101220.56
2023-11-24T06:43:59.708Z,101209.44
2023-11-24T06:46:26.439Z,101225.84
2023-11-24T06:48:53.204Z,101223.78
2023-11-24T06:51:20.033Z,101239.25
2023-11-24T06:53:46.752Z,101271.00
2023-11-24T06:56:13.535Z,101245.25
2023-11-24T06:58:42.083Z,101264.81
2023-11-24T07:01:08.861Z,101264.72
2023-11-24T07:03:36.699Z,101267.91
2023-11-24T07:06:03.734Z,101259.63
2023-11-24T07:08:30.409Z,101277.06
2023-11-24T07:10:57.125Z,101259.97
2023-11-24T07:13:23.815Z,101237.31
2023-11-24T07:15:51.970Z,101258.72
2023-11-24T07:18:18.959Z,101266.13
2023-11-24T07:20:48.480Z,101268.97
2023-11-24T07:23:16.494Z,101256.44
2023-11-24T07:25:43.168Z,101252.84
2023-11-24T07:28:09.868Z,101257.66
2023-11-24T07:30:36.692Z,101249.88
2023-11-24T07:33:04.829Z,101252.41
2023-11-24T07:35:31.651Z,101260.03
2023-11-24T07:37:58.286Z,101253.47
2023-11-24T07:40:24.965Z,101242.53
2023-11-24T07:42:51.798Z,101270.84
2023-11-24T07:45:18.471Z,101260.47
2023-11-24T07:47:45.263Z,101256.13
2023-11-24T07:50:13.620Z,101253.19
2023-11-24T07:52:40.570Z,101261.09
2023-11-24T07:55:08.152Z,101248.81
2023-11-24T07:57:34.987Z,101229.97
2023-11-24T08:00:02.140Z,101240.78
2023-11-24T08:02:29.068Z,101240.13
2023-11-24T08:04:55.993Z,101237.59
2023-11-24T08:07:24.111Z,101237.53
2023-11-24T08:09:50.838Z,101223.28
2023-11-24T08:12:17.679Z,101247.13
2023-11-24T08:14:44.391Z,101238.16
2023-11-24T08:17:11.187Z,101244.22
2023-11-24T08:19:37.931Z,101211.22
2023-11-24T08:22:04.717Z,101255.94
2023-11-24T08:24:32.864Z,101255.03
2023-11-24T08:26:59.625Z,101242.97
2023-11-24T08:29:26.300Z,101257.53
2023-11-24T08:31:52.958Z,101253.81
2023-11-24T08:34:19.856Z,101230.78
2023-11-24T08:36:46.661Z,101244.59
2023-11-24T08:39:13.349Z,101220.88
2023-11-24T08:41:41.539Z,101221.50
2023-11-24T08:44:08.312Z,101219.97
2023-11-24T08:46:35.263Z,101209.16
2023-11-24T08:49:02.092Z,101216.56
2023-11-24T08:51:28.888Z,101213.09
2023-11-24T08:53:55.625Z,101202.66
2023-11-24T08:56:22.410Z,101215.09
2023-11-24T08:58:50.881Z,101192.53
2023-11-24T09:01:18.050Z,101174.84
2023-11-24T09:03:45.011Z,101164.91
2023-11-24T09:06:11.978Z,101173.91
2023-11-24T09:08:38.841Z,101179.44
2023-11-24T09:11:06.353Z,101188.41
2023-11-24T09:13:33.225Z,101185.16
2023-11-24T09:16:01.434Z,101185.09
2023-11-24T09:18:28.279Z,101179.59
2023-11-24T09:20:56.675Z,101184.03
2023-11-24T09:23:23.777Z,101170.44
2023-11-24T09:25:50.738Z,101152.09
2023-11-24T09:28:17.717Z,101156.16
2023-11-24T09:30:44.666Z,101139.44
2023-11-24T09:33:12.912Z,101146.16
2023-11-24T09:35:39.740Z,101146.97
2023-11-24T09:38:06.602Z,101121.53
2023-11-24T09:40:33.437Z,101139.06
2023-11-24T09:43:00.672Z,101115.47
2023-11-24T09:45:27.742Z,101150.53
2023-11-24T09:47:54.655Z,101149.13
2023-11-24T09:50:24.214Z,101153.09
2023-11-24T09:52:51.807Z,101145.19
2023-11-24T09:55:18.741Z,101131.41
2023-11-24T09:57:45.603Z,101136.00
2023-11-24T10:00:13.400Z,101119.53
2023-11-24T10:02:40.874Z,101135.28
2023-11-24T10:05:07.930Z,101128.47
2023-11-24T10:07:36.058Z,101125.13
2023-11-24T10:10:03.138Z,101133.31
2023-11-24T10:12:30.215Z,101138.28
2023-11-24T10:14:57.060Z,101138.78
2023-11-24T10:17:23.871Z,101144.22
2023-11-24T10:19:50.554Z,101149.22
2023-11-24T10:22:17.328Z,101149.94
2023-11-24T10:24:46.381Z,101140.38
2023-11-24T10:27:19.906Z,101154.59
2023-11-24T10:29:47.399Z,101142.75
2023-11-24T10:32:15.364Z,101137.66
2023-11-24T10:34:42.499Z,101112.75
2023-11-24T10:37:11.668Z,101092.59
2023-11-24T10:39:42.520Z,101098.00
2023-11-24T10:42:11.192Z,101100.78
2023-11-24T10:44:41.413Z,101114.59
2023-11-24T10:47:09.485Z,101110.34
2023-11-24T10:49:42.383Z,101122.06
2023-11-24T10:52:20.169Z,101102.25
2023-11-24T10:54:52.409Z,101099.06
2023-11-24T10:57:22.395Z,101121.34
2023-11-24T10:59:50.544Z,101118.56
2023-11-24T11:02:18.974Z,101118.50
2023-11-24T11:04:52.363Z,101103.75
2023-11-24T11:07:25.745Z,101066.75
2023-11-24T11:09:52.723Z,101055.94
2023-11-24T11:12:38.804Z,101086.13
2023-11-24T11:15:08.276Z,101100.59
2023-11-24T11:17:35.060Z,101103.31
2023-11-24T11:20:03.893Z,101086.06
2023-11-24T11:22:35.195Z,101084.31
2023-11-24T11:25:16.665Z,101078.22
2023-11-24T11:27:44.890Z,101076.97
2023-11-24T11:30:15.476Z,101072.06
2023-11-24T11:32:42.577Z,101103.06
2023-11-24T11:35:10.968Z,101082.41
2023-11-24T11:37:38.108Z,101065.63
2023-11-24T11:40:12.234Z,101085.06
2023-11-24T11:42:53.974Z,101081.81
2023-11-24T11:45:20.704Z,101089.75
2023-11-24T11:47:51.197Z,101092.94
2023-11-24T11:50:19.338Z,101071.94
2023-11-24T11:52:47.343Z,101085.53
2023-11-24T11:55:14.265Z,101063.88
2023-11-24T11:57:41.022Z,101035.50
2023-11-24T12:00:10.293Z,101058.56
2023-11-24T12:02:37.341Z,101027.22
2023-11-24T12:05:04.725Z,101046.97
2023-11-24T12:07:32.906Z,101073.47
2023-11-24T12:09:59.676Z,101068.91
2023-11-24T12:12:26.345Z,101075.06
2023-11-24T12:14:53.115Z,101108.84
2023-11-24T12:17:21.539Z,101089.44
2023-11-24T12:19:48.396Z,101088.72
2023-11-24T12:22:15.456Z,101107.41
2023-11-24T12:24:42.408Z,101098.34
2023-11-24T12:27:10.277Z,101088.72
2023-11-24T12:29:38.720Z,101084.38
2023-11-24T12:32:06.396Z,101067.59
2023-11-24T12:34:34.548Z,101063.03
2023-11-24T12:37:01.405Z,101075.00
2023-11-24T12:39:28.704Z,101054.91
2023-11-24T12:41:55.831Z,101033.22
2023-11-24T12:44:26.163Z,101061.19
2023-11-24T12:47:07.766Z,101060.97
2023-11-24T12:49:52.949Z,101031.41
2023-11-24T12:52:19.754Z,101044.69
2023-11-24T12:54:46.519Z,101051.97
2023-11-24T12:57:13.340Z,101034.53
2023-11-24T12:59:39.991Z,101038.50
2023-11-24T13:02:06.828Z,101029.38
2023-11-24T13:04:33.721Z,101044.81
2023-11-24T13:07:03.301Z,101026.91
2023-11-24T13:09:31.081Z,100993.03
2023-11-24T13:12:00.389Z,101020.94
2023-11-24T13:14:32.374Z,101007.81
2023-11-24T13:16:59.260Z,100998.25
2023-11-24T13:19:26.314Z,100976.56
2023-11-24T13:21:53.327Z,101001.50
2023-11-24T13:24:21.442Z,101001.94
2023-11-24T13:26:48.276Z,100993.38
2023-11-24T13:29:16.202Z,100983.91
2023-11-24T13:31:43.486Z,100984.09
2023-11-24T13:34:10.230Z,100934.44
2023-11-24T13:36:36.994Z,100991.47
2023-11-24T13:39:04.057Z,100993.66
2023-11-24T13:41:32.104Z,100987.31
2023-11-24T13:43:58.804Z,100970.06
2023-11-24T13:46:25.600Z,100988.97
2023-11-24T13:48:52.304Z,100988.47
2023-11-24T13:51:19.900Z,100977.88
2023-11-24T13:53:46.557Z,100960.97
2023-11-24T13:56:13.259Z,100969.47
2023-11-24T13:58:41.274Z,101033.03
2023-11-24T14:01:08.107Z,101034.72
2023-11-24T14:03:34.929Z,101020.31
2023-11-24T14:06:01.716Z,101023.22
2023-11-24T14:08:28.425Z,101012.13
2023-11-24T14:10:55.234Z,101014.78
2023-11-24T14:13:21.955Z,100994.44
2023-11-24T14:15:50.254Z,100997.00
2023-11-24T14:18:16.921Z,100984.47
2023-11-24T14:20:43.770Z,100975.16
2023-11-24T14:23:10.616Z,100914.19
2023-11-24T14:25:37.365Z,100955.13
2023-11-24T14:28:04.449Z,100971.84
2023-11-24T14:30:31.268Z,100949.50
2023-11-24T14:32:59.471Z,100974.88
2023-11-24T14:35:26.236Z,100970.34
2023-11-24T14:37:52.874Z,100986.38
2023-11-24T14:40:21.518Z,100991.94
2023-11-24T14:42:49.276Z,100971.66
2023-11-24T14:45:16.106Z,100957.84
2023-11-24T14:47:43.365Z,101009.34
2023-11-24T14:50:11.619Z,100999.03
2023-11-24T14:52:38.457Z,101014.31
2023-11-24T14:55:06.559Z,101016.34
2023-11-24T14:57:33.284Z,101024.72
2023-11-24T14:59:59.999Z,101008.28
2023-11-24T15:02:26.806Z,101007.09
2023-11-24T15:04:53.675Z,100998.44
2023-11-24T15:07:21.845Z,101025.75
2023-11-24T15:09:48.612Z,101006.25
2023-11-24T15:12:15.326Z,101014.63
2023-11-24T15:14:41.998Z,101032.78
2023-11-24T15:17:08.787Z,101025.81
2023-11-24T15:19:35.873Z,101028.50
2023-11-24T15:22:03.126Z,101002.78
2023-11-24T15:24:31.357Z,101012.34
2023-11-24T15:26:58.109Z,101020.47
2023-11-24T15:29:24.807Z,100969.94
2023-11-24T15:31:51.618Z,101014.72
2023-11-24T15:34:18.419Z,101019.47
2023-11-24T15:36:45.100Z,101041.72
2023-11-24T15:39:11.879Z,101032.03
2023-11-24T15:41:40.223Z,101020.47
2023-11-24T15:44:08.215Z,100999.38
2023-11-24T15:46:35.440Z,100994.16
2023-11-24T15:49:02.671Z,100987.31
2023-11-24T15:51:29.964Z,101006.16
2023-11-24T15:53:57.095Z,100997.13
2023-11-24T15:56:24.032Z,100977.69
2023-11-24T15:58:52.763Z,101004.97
2023-11-24T16:01:19.741Z,101003.25
2023-11-24T16:03:46.527Z,101003.13
2023-11-24T16:06:13.312Z,100998.44
2023-11-24T16:08:39.998Z,100996.19
2023-11-24T16:11:06.835Z,100967.78
2023-11-24T16:13:33.664Z,100985.88
2023-11-24T16:16:01.810Z,100976.19
2023-11-24T16:18:35.208Z,100966.56
2023-11-24T16:21:02.669Z,100972.66
2023-11-24T16:23:29.565Z,100979.84
2023-11-24T16:25:56.296Z,100982.75
2023-11-24T16:28:23.043Z,100966.38
2023-11-24T16:30:49.803Z,100967.31
2023-11-24T16:33:17.922Z,100968.13
2023-11-24T16:35:44.630Z,100979.34
2023-11-24T16:38:11.461Z,100993.59
2023-11-24T16:40:38.288Z,101009.66
2023-11-24T16:43:05.066Z,101002.56
2023-11-24T16:45:31.828Z,100985.13
2023-11-24T16:47:58.559Z,100972.63
2023-11-24T16:50:26.838Z,100975.84
2023-11-24T16:52:53.670Z,101006.00
2023-11-24T16:55:20.460Z,100964.31
2023-11-24T16:57:47.111Z,101003.97
2023-11-24T17:00:14.987Z,100974.88
2023-11-24T17:02:42.143Z,100973.22
2023-11-24T17:05:09.062Z,100979.97
2023-11-24T17:07:37.185Z,100986.00
2023-11-24T17:10:06.103Z,100999.53
2023-11-24T17:12:34.256Z,101002.66
2023-11-24T17:15:00.962Z,100990.53
2023-11-24T17:17:27.932Z,101003.91
2023-11-24T17:19:54.896Z,101005.75
2023-11-24T17:22:21.646Z,101008.09
2023-11-24T17:24:49.825Z,101005.38
2023-11-24T17:27:16.599Z,100995.38
2023-11-24T17:29:43.284Z,101005.03
2023-11-24T17:32:09.993Z,101012.75
2023-11-24T17:34:36.807Z,101006.50
2023-11-24T17:37:03.802Z,100994.75
2023-11-24T17:39:30.557Z,101014.91
2023-11-24T17:41:58.617Z,101013.00
2023-11-24T17:44:25.345Z,101023.91
2023-11-24T17:46:52.112Z,101017.31
2023-11-24T17:49:18.893Z,101036.00
2023-11-24T17:51:45.680Z,101024.63
2023-11-24T17:54:12.503Z,101034.34
2023-11-24T17:56:39.286Z,101044.38
2023-11-24T17:59:07.485Z,101047.81
2023-11-24T18:01:35.532Z,101062.72
2023-11-24T18:04:02.422Z,101055.84
2023-11-24T18:06:29.172Z,101054.28
2023-11-24T18:08:56.156Z,101059.94
2023-11-24T18:11:23.146Z,101039.50
2023-11-24T18:13:49.888Z,101015.88
2023-11-24T18:16:18.137Z,101036.94
2023-11-24T18:18:44.904Z,101032.34
2023-11-24T18:21:11.633Z,101043.31
2023-11-24T18:23:38.376Z,101020.06
2023-11-24T18:26:05.325Z,101021.75
2023-11-24T18:28:32.378Z,101072.00
2023-11-24T18:30:59.238Z,101068.94
2023-11-24T18:33:27.452Z,101068.25
2023-11-24T18:35:54.360Z,101059.91
2023-11-24T18:38:21.080Z,101054.31
2023-11-24T18:40:47.827Z,101070.88
2023-11-24T18:43:23.108Z,101073.16
2023-11-24T18:45:57.159Z,101060.50
2023-11-24T18:48:23.961Z,101074.34
2023-11-24T18:50:52.046Z,101070.75
2023-11-24T18:53:18.834Z,101077.50
2023-11-24T18:55:45.569Z,101087.81
2023-11-24T18:58:12.309Z,101097.66
2023-11-24T19:00:39.024Z,101084.03
2023-11-24T19:03:05.984Z,101091.78
2023-11-24T19:05:32.722Z,101102.72
2023-11-24T19:08:00.790Z,101097.75
2023-11-24T19:10:27.653Z,101100.84
2023-11-24T19:12:54.443Z,101122.34
2023-11-24T19:15:21.587Z,101117.97
2023-11-24T19:17:48.409Z,101111.00
2023-11-24T19:20:15.334Z,101128.47
2023-11-24T19:22:42.005Z,101135.31
2023-11-24T19:25:10.269Z,101142.69
2023-11-24T19:27:37.111Z,101124.72
2023-11-24T19:30:04.190Z,101156.56
2023-11-24T19:32:30.996Z,101153.63
2023-11-24T19:34:57.737Z,101151.31
2023-11-24T19:37:24.427Z,101124.72
2023-11-24T19:39:51.319Z,101148.22
2023-11-24T19:42:21.553Z,101139.97
2023-11-24T19:44:49.322Z,101141.97
2023-11-24T19:47:16.066Z,101166.25
2023-11-24T19:49:42.779Z,101122.63
2023-11-24T19:52:10.490Z,101153.53
2023-11-24T19:54:37.281Z,101148.81
2023-11-24T19:57:04.349Z,101139.22
2023-11-24T19:59:32.505Z,101164.72
2023-11-24T20:01:59.293Z,101158.94
2023-11-24T20:04:26.152Z,101174.09
2023-11-24T20:06:52.866Z,101173.66
2023-11-24T20:09:19.566Z,101176.91
2023-11-24T20:11:46.239Z,101186.16
2023-11-24T20:14:12.920Z,101175.94
2023-11-24T20:16:41.056Z,101175.66
2023-11-24T20:19:07.839Z,101182.41
2023-11-24T20:21:34.567Z,101197.47
2023-11-24T20:24:01.403Z,101194.69
2023-11-24T20:26:28.091Z,101192.13
2023-11-24T20:28:54.773Z,101196.19
2023-11-24T20:31:21.553Z,101198.97
2023-11-24T20:33:49.698Z,101203.84
2023-11-24T20:36:16.920Z,101186.03
2023-11-24T20:38:43.547Z,101192.31
2023-11-24T20:41:10.267Z,101215.59
2023-11-24T20:43:36.943Z,101232.84
2023-11-24T20:46:03.845Z,101224.28
2023-11-24T20:48:30.618Z,101223.22
2023-11-24T20:50:58.697Z,101225.13
2023-11-24T20:53:25.788Z,101236.56
2023-11-24T20:55:52.478Z,101230.84
2023-11-24T20:58:19.280Z,101245.34
2023-11-24T21:00:46.199Z,101243.56
2023-11-24T21:03:12.949Z,101251.28
2023-11-24T21:05:39.611Z,101265.69
2023-11-24T21:08:07.727Z,101260.00
2023-11-24T21:10:34.490Z,101266.75
2023-11-24T21:13:01.380Z,101264.31
2023-11-24T21:15:28.112Z,101247.50
2023-11-24T21:17:54.897Z,101253.63
2023-11-24T21:20:21.635Z,101258.16
2023-11-24T21:22:48.429Z,101249.19
2023-11-24T21:25:17.064Z,101254.34
2023-11-24T21:27:43.785Z,101254.06
2023-11-24T21:30:11.569Z,101242.84
2023-11-24T21:32:40.809Z,101242.84
2023-11-24T21:35:08.291Z,101243.50
2023-11-24T21:37:35.195Z,101234.66
2023-11-24T21:40:02.145Z,101262.44
2023-11-24T21:42:30.297Z,101263.31
2023-11-24T21:44:57.013Z,101273.31
2023-11-24T21:47:23.762Z,101275.25
2023-11-24T21:49:50.649Z,101279.13
2023-11-24T21:52:17.395Z,101282.13
2023-11-24T21:54:47.503Z,101282.56
2023-11-24T21:57:15.309Z,101268.56
2023-11-24T21:59:43.589Z,101286.22
2023-11-24T22:02:10.480Z,101281.94
2023-11-24T22:04:37.392Z,101285.00
2023-11-24T22:07:04.403Z,101282.13
2023-11-24T22:09:31.093Z,101285.25
2023-11-24T22:11:57.809Z,101285.13
2023-11-24T22:14:24.475Z,101285.81
2023-11-24T22:16:52.907Z,101289.44
2023-11-24T22:19:19.804Z,101298.19
2023-11-24T22:21:46.735Z,101302.69
2023-11-24T22:24:13.494Z,101298.28
2023-11-24T22:26:40.350Z,101295.63
2023-11-24T22:29:07.498Z,101306.56
2023-11-24T22:31:34.354Z,101312.84
2023-11-24T22:34:02.742Z,101314.56
2023-11-24T22:36:29.518Z,101327.13
2023-11-24T22:38:56.386Z,101316.25
2023-11-24T22:41:24.167Z,101323.28
2023-11-24T22:43:51.436Z,101311.22
2023-11-24T22:46:21.954Z,101316.97
2023-11-24T22:48:49.016Z,101320.91
2023-11-24T22:51:21.481Z,101351.53
2023-11-24T22:53:48.541Z,101354.06
2023-11-24T22:56:19.610Z,101379.00
2023-11-24T22:58:46.493Z,101364.16
2023-11-24T23:01:13.315Z,101374.19
2023-11-24T23:03:40.174Z,101356.34
2023-11-24T23:06:07.216Z,101355.75
2023-11-24T23:08:35.366Z,101368.94
2023-11-24T23:11:02.232Z,101354.78
2023-11-24T23:13:29.358Z,101355.25
2023-11-24T23:15:56.034Z,101365.72
2023-11-24T23:18:22.809Z,101363.09
2023-11-24T23:20:49.507Z,101363.13
2023-11-24T23:23:16.258Z,101360.94
2023-11-24T23:25:44.423Z,101356.25
2023-11-24T23:28:11.205Z,101356.13
2023-11-24T23:30:37.899Z,101363.88
2023-11-24T23:33:13.080Z,101367.00
2023-11-24T23:35:44.868Z,101381.53
2023-11-24T23:38:11.615Z,101391.22
2023-11-24T23:40:39.105Z,101388.00
2023-11-24T23:43:07.949Z,101391.72
2023-11-24T23:45:34.788Z,101388.28
2023-11-24T23:48:01.540Z,101385.59
2023-11-24T23:50:30.906Z,101385.63
2023-11-24T23:52:57.918Z,101381.28
2023-11-24T23:55:24.709Z,101384.91
2023-11-24T23:57:51.583Z,101384.13
